sensor_id;sensor_type;location;lat;lon;timestamp;temperature;humidity
21502;DHT22;27639;48.674;9.242;2023-10-09T00:01:40;17.10;55.70
21502;DHT22;27639;48.674;9.242;2023-10-09T00:04:10;17.00;55.70
21502;DHT22;27639;48.674;9.242;2023-10-09T00:06:37;17.00;55.70
21502;DHT22;27639;48.674;9.242;2023-10-09T00:09:06;17.00;55.90
21502;DHT22;27639;48.674;9.242;2023-10-09T00:11:44;16.90;55.90
21502;DHT22;27639;48.674;9.242;2023-10-09T00:14:11;16.80;55.80
21502;DHT22;27639;48.674;9.242;2023-10-09T00:16:36;16.80;55.80
21502;DHT22;27639;48.674;9.242;2023-10-09T00:19:08;16.90;55.90
21502;DHT22;27639;48.674;9.242;2023-10-09T00:21:46;16.90;55.90
21502;DHT22;27639;48.674;9.242;2023-10-09T00:24:12;16.90;55.80
21502;DHT22;27639;48.674;9.242;2023-10-09T00:26:51;16.90;55.90
21502;DHT22;27639;48.674;9.242;2023-10-09T00:29:18;16.90;55.80
21502;DHT22;27639;48.674;9.242;2023-10-09T00:31:53;16.90;55.80
21502;DHT22;27639;48.674;9.242;2023-10-09T00:34:39;17.00;55.60
21502;DHT22;27639;48.674;9.242;2023-10-09T00:37:08;16.90;55.30
21502;DHT22;27639;48.674;9.242;2023-10-09T00:39:48;16.90;55.00
21502;DHT22;27639;48.674;9.242;2023-10-09T00:42:22;16.90;55.10
21502;DHT22;27639;48.674;9.242;2023-10-09T00:44:58;16.90;55.10
21502;DHT22;27639;48.674;9.242;2023-10-09T00:47:31;16.90;55.20
21502;DHT22;27639;48.674;9.242;2023-10-09T00:50:04;16.70;55.30
21502;DHT22;27639;48.674;9.242;2023-10-09T00:52:50;16.70;55.70
21502;DHT22;27639;48.674;9.242;2023-10-09T00:55:32;16.60;55.60
21502;DHT22;27639;48.674;9.242;2023-10-09T00:58:12;16.50;55.60
21502;DHT22;27639;48.674;9.242;2023-10-09T01:00:39;16.60;55.60
21502;DHT22;27639;48.674;9.242;2023-10-09T01:03:13;16.50;55.80
21502;DHT22;27639;48.674;9.242;2023-10-09T01:05:48;16.50;55.90
21502;DHT22;27639;48.674;9.242;2023-10-09T01:08:21;16.50;55.90
21502;DHT22;27639;48.674;9.242;2023-10-09T01:11:05;16.40;56.10
21502;DHT22;27639;48.674;9.242;2023-10-09T01:13:44;16.30;56.30
21502;DHT22;27639;48.674;9.242;2023-10-09T01:16:23;16.20;56.40
21502;DHT22;27639;48.674;9.242;2023-10-09T01:18:51;16.20;56.50
21502;DHT22;27639;48.674;9.242;2023-10-09T01:21:20;16.20;56.70
21502;DHT22;27639;48.674;9.242;2023-10-09T01:23:57;16.20;56.70
21502;DHT22;27639;48.674;9.242;2023-10-09T01:26:36;16.20;56.70
21502;DHT22;27639;48.674;9.242;2023-10-09T01:29:05;16.10;56.80
21502;DHT22;27639;48.674;9.242;2023-10-09T01:31:36;16.20;57.00
21502;DHT22;27639;48.674;9.242;2023-10-09T01:34:04;16.20;56.90
21502;DHT22;27639;48.674;9.242;2023-10-09T01:36:36;16.30;57.00
21502;DHT22;27639;48.674;9.242;2023-10-09T01:39:04;16.30;56.90
21502;DHT22;27639;48.674;9.242;2023-10-09T01:41:49;16.30;56.80
21502;DHT22;27639;48.674;9.242;2023-10-09T01:44:17;16.30;56.80
21502;DHT22;27639;48.674;9.242;2023-10-09T01:46:44;16.30;56.80
21502;DHT22;27639;48.674;9.242;2023-10-09T01:49:12;16.30;56.80
21502;DHT22;27639;48.674;9.242;2023-10-09T01:51:45;16.40;56.80
21502;DHT22;27639;48.674;9.242;2023-10-09T01:54:12;16.40;56.80
21502;DHT22;27639;48.674;9.242;2023-10-09T01:56:53;16.40;56.60
21502;DHT22;27639;48.674;9.242;2023-10-09T01:59:21;16.40;56.70
21502;DHT22;27639;48.674;9.242;2023-10-09T02:01:47;16.30;56.60
21502;DHT22;27639;48.674;9.242;2023-10-09T02:04:13;16.30;56.60
21502;DHT22;27639;48.674;9.242;2023-10-09T02:06:39;16.30;57.40
21502;DHT22;27639;48.674;9.242;2023-10-09T02:09:05;16.30;56.70
21502;DHT22;27639;48.674;9.242;2023-10-09T02:11:32;16.40;56.80
21502;DHT22;27639;48.674;9.242;2023-10-09T02:14:05;16.40;56.70
21502;DHT22;27639;48.674;9.242;2023-10-09T02:16:47;16.40;56.70
21502;DHT22;27639;48.674;9.242;2023-10-09T02:19:33;16.40;56.70
21502;DHT22;27639;48.674;9.242;2023-10-09T02:22:06;16.50;56.80
21502;DHT22;27639;48.674;9.242;2023-10-09T02:24:41;16.50;56.70
21502;DHT22;27639;48.674;9.242;2023-10-09T02:27:23;16.40;56.60
21502;DHT22;27639;48.674;9.242;2023-10-09T02:30:08;16.40;56.70
21502;DHT22;27639;48.674;9.242;2023-10-09T02:32:53;16.30;56.70
21502;DHT22;27639;48.674;9.242;2023-10-09T02:35:24;16.30;56.80
21502;DHT22;27639;48.674;9.242;2023-10-09T02:38:08;16.30;56.90
21502;DHT22;27639;48.674;9.242;2023-10-09T02:40:36;16.30;56.80
21502;DHT22;27639;48.674;9.242;2023-10-09T02:43:20;16.40;56.90
21502;DHT22;27639;48.674;9.242;2023-10-09T02:45:46;16.40;56.70
21502;DHT22;27639;48.674;9.242;2023-10-09T02:48:17;16.50;56.50
21502;DHT22;27639;48.674;9.242;2023-10-09T02:50:46;16.50;56.20
21502;DHT22;27639;48.674;9.242;2023-10-09T02:53:12;16.50;56.20
21502;DHT22;27639;48.674;9.242;2023-10-09T02:55:44;16.60;56.30
21502;DHT22;27639;48.674;9.242;2023-10-09T02:58:18;16.60;56.30
21502;DHT22;27639;48.674;9.242;2023-10-09T03:00:46;16.50;56.40
21502;DHT22;27639;48.674;9.242;2023-10-09T03:03:14;16.60;56.50
21502;DHT22;27639;48.674;9.242;2023-10-09T03:05:44;16.60;56.60
21502;DHT22;27639;48.674;9.242;2023-10-09T03:08:10;16.60;56.50
21502;DHT22;27639;48.674;9.242;2023-10-09T03:10:38;16.60;56.40
21502;DHT22;27639;48.674;9.242;2023-10-09T03:13:04;16.60;57.20
21502;DHT22;27639;48.674;9.242;2023-10-09T03:15:31;16.50;56.50
21502;DHT22;27639;48.674;9.242;2023-10-09T03:18:02;16.50;56.70
21502;DHT22;27639;48.674;9.242;2023-10-09T03:20:30;16.50;56.90
21502;DHT22;27639;48.674;9.242;2023-10-09T03:22:56;16.50;56.90
21502;DHT22;27639;48.674;9.242;2023-10-09T03:25:23;16.50;56.90
21502;DHT22;27639;48.674;9.242;2023-10-09T03:27:50;16.60;56.90
21502;DHT22;27639;48.674;9.242;2023-10-09T03:30:18;16.60;56.90
21502;DHT22;27639;48.674;9.242;2023-10-09T03:32:51;16.60;56.80
21502;DHT22;27639;48.674;9.242;2023-10-09T03:35:18;16.40;56.80
21502;DHT22;27639;48.674;9.242;2023-10-09T03:37:55;16.50;57.00
21502;DHT22;27639;48.674;9.242;2023-10-09T03:40:43;16.40;56.90
21502;DHT22;27639;48.674;9.242;2023-10-09T03:43:09;16.40;57.10
21502;DHT22;27639;48.674;9.242;2023-10-09T03:45:39;16.40;57.10
21502;DHT22;27639;48.674;9.242;2023-10-09T03:48:11;16.40;57.20
21502;DHT22;27639;48.674;9.242;2023-10-09T03:50:41;16.40;57.10
21502;DHT22;27639;48.674;9.242;2023-10-09T03:53:09;16.50;57.10
21502;DHT22;27639;48.674;9.242;2023-10-09T03:55:39;16.50;57.00
21502;DHT22;27639;48.674;9.242;2023-10-09T03:58:06;16.60;57.10
21502;DHT22;27639;48.674;9.242;2023-10-09T04:00:32;16.60;56.80
21502;DHT22;27639;48.674;9.242;2023-10-09T04:03:06;16.60;56.70
21502;DHT22;27639;48.674;9.242;2023-10-09T04:05:32;16.60;56.70
21502;DHT22;27639;48.674;9.242;2023-10-09T04:07:58;16.50;56.70
21502;DHT22;27639;48.674;9.242;2023-10-09T04:10:27;16.50;56.80
21502;DHT22;27639;48.674;9.242;2023-10-09T04:13:10;16.40;56.80
21502;DHT22;27639;48.674;9.242;2023-10-09T04:15:37;16.30;57.00
21502;DHT22;27639;48.674;9.242;2023-10-09T04:18:03;16.30;57.20
21502;DHT22;27639;48.674;9.242;2023-10-09T04:20:31;16.30;57.30
21502;DHT22;27639;48.674;9.242;2023-10-09T04:22:59;16.20;57.30
21502;DHT22;27639;48.674;9.242;2023-10-09T04:25:31;16.20;57.40
21502;DHT22;27639;48.674;9.242;2023-10-09T04:28:08;16.10;57.60
21502;DHT22;27639;48.674;9.242;2023-10-09T04:30:47;16.10;57.60
21502;DHT22;27639;48.674;9.242;2023-10-09T04:33:19;16.10;57.60
21502;DHT22;27639;48.674;9.242;2023-10-09T04:36:04;16.10;57.60
21502;DHT22;27639;48.674;9.242;2023-10-09T04:38:46;16.10;57.60
21502;DHT22;27639;48.674;9.242;2023-10-09T04:41:30;16.10;57.70
21502;DHT22;27639;48.674;9.242;2023-10-09T04:44:17;16.00;57.80
21502;DHT22;27639;48.674;9.242;2023-10-09T04:46:51;16.00;57.90
21502;DHT22;27639;48.674;9.242;2023-10-09T04:49:36;16.00;57.90
21502;DHT22;27639;48.674;9.242;2023-10-09T04:52:14;16.00;58.00
21502;DHT22;27639;48.674;9.242;2023-10-09T04:54:59;16.00;58.00
21502;DHT22;27639;48.674;9.242;2023-10-09T04:57:30;15.90;58.10
21502;DHT22;27639;48.674;9.242;2023-10-09T05:00:07;15.90;58.20
21502;DHT22;27639;48.674;9.242;2023-10-09T05:02:57;15.90;58.20
21502;DHT22;27639;48.674;9.242;2023-10-09T05:05:25;15.80;58.10
21502;DHT22;27639;48.674;9.242;2023-10-09T05:08:03;15.80;58.40
21502;DHT22;27639;48.674;9.242;2023-10-09T05:10:51;15.90;58.30
21502;DHT22;27639;48.674;9.242;2023-10-09T05:13:40;15.90;58.40
21502;DHT22;27639;48.674;9.242;2023-10-09T05:16:17;16.00;58.40
21502;DHT22;27639;48.674;9.242;2023-10-09T05:18:51;16.10;58.30
21502;DHT22;27639;48.674;9.242;2023-10-09T05:21:45;16.00;58.20
21502;DHT22;27639;48.674;9.242;2023-10-09T05:24:11;16.10;58.00
21502;DHT22;27639;48.674;9.242;2023-10-09T05:26:37;16.10;57.80
21502;DHT22;27639;48.674;9.242;2023-10-09T05:29:25;16.20;57.70
21502;DHT22;27639;48.674;9.242;2023-10-09T05:32:04;16.20;57.70
21502;DHT22;27639;48.674;9.242;2023-10-09T05:34:39;16.20;57.70
21502;DHT22;27639;48.674;9.242;2023-10-09T05:37:32;16.00;57.90
21502;DHT22;27639;48.674;9.242;2023-10-09T05:40:06;16.00;58.10
21502;DHT22;27639;48.674;9.242;2023-10-09T05:42:45;16.00;58.20
21502;DHT22;27639;48.674;9.242;2023-10-09T05:45:14;16.00;58.40
21502;DHT22;27639;48.674;9.242;2023-10-09T05:47:49;16.00;58.30
21502;DHT22;27639;48.674;9.242;2023-10-09T05:50:33;16.00;58.30
21502;DHT22;27639;48.674;9.242;2023-10-09T05:53:01;16.00;58.20
21502;DHT22;27639;48.674;9.242;2023-10-09T05:55:28;16.10;58.30
21502;DHT22;27639;48.674;9.242;2023-10-09T05:58:23;16.00;58.30
21502;DHT22;27639;48.674;9.242;2023-10-09T06:01:07;16.00;58.50
21502;DHT22;27639;48.674;9.242;2023-10-09T06:04:07;15.80;58.40
21502;DHT22;27639;48.674;9.242;2023-10-09T06:06:44;15.90;58.70
21502;DHT22;27639;48.674;9.242;2023-10-09T06:09:12;16.00;58.70
21502;DHT22;27639;48.674;9.242;2023-10-09T06:11:37;16.00;58.60
21502;DHT22;27639;48.674;9.242;2023-10-09T06:14:03;16.10;58.70
21502;DHT22;27639;48.674;9.242;2023-10-09T06:16:35;16.10;58.60
21502;DHT22;27639;48.674;9.242;2023-10-09T06:19:08;16.20;58.70
21502;DHT22;27639;48.674;9.242;2023-10-09T06:21:37;16.20;58.50
21502;DHT22;27639;48.674;9.242;2023-10-09T06:24:25;16.20;58.50
21502;DHT22;27639;48.674;9.242;2023-10-09T06:26:59;16.20;58.60
21502;DHT22;27639;48.674;9.242;2023-10-09T06:29:29;16.20;58.60
21502;DHT22;27639;48.674;9.242;2023-10-09T06:34:51;16.40;58.90
21502;DHT22;27639;48.674;9.242;2023-10-09T06:37:18;16.40;58.80
21502;DHT22;27639;48.674;9.242;2023-10-09T06:39:50;16.40;58.60
21502;DHT22;27639;48.674;9.242;2023-10-09T06:42:16;16.40;58.70
21502;DHT22;27639;48.674;9.242;2023-10-09T06:45:12;16.50;58.70
21502;DHT22;27639;48.674;9.242;2023-10-09T06:47:50;16.50;58.80
21502;DHT22;27639;48.674;9.242;2023-10-09T06:50:21;16.60;58.70
21502;DHT22;27639;48.674;9.242;2023-10-09T06:52:48;16.60;58.60
21502;DHT22;27639;48.674;9.242;2023-10-09T06:55:23;16.70;58.70
21502;DHT22;27639;48.674;9.242;2023-10-09T06:58:02;16.70;58.40
21502;DHT22;27639;48.674;9.242;2023-10-09T07:00:38;16.80;58.50
21502;DHT22;27639;48.674;9.242;2023-10-09T07:03:22;16.90;58.50
21502;DHT22;27639;48.674;9.242;2023-10-09T07:08:50;17.10;58.40
21502;DHT22;27639;48.674;9.242;2023-10-09T07:11:43;17.20;58.40
21502;DHT22;27639;48.674;9.242;2023-10-09T07:14:43;17.30;58.20
21502;DHT22;27639;48.674;9.242;2023-10-09T07:17:03;17.30;58.20
21502;DHT22;27639;48.674;9.242;2023-10-09T07:19:41;17.30;58.30
21502;DHT22;27639;48.674;9.242;2023-10-09T07:22:10;17.30;58.40
21502;DHT22;27639;48.674;9.242;2023-10-09T07:24:55;17.40;58.40
21502;DHT22;27639;48.674;9.242;2023-10-09T07:27:31;17.50;58.40
21502;DHT22;27639;48.674;9.242;2023-10-09T07:30:16;17.60;58.40
21502;DHT22;27639;48.674;9.242;2023-10-09T07:40:38;17.80;58.40
21502;DHT22;27639;48.674;9.242;2023-10-09T07:43:23;17.80;58.40
21502;DHT22;27639;48.674;9.242;2023-10-09T07:45:55;17.60;58.50
21502;DHT22;27639;48.674;9.242;2023-10-09T07:48:23;17.60;58.50
21502;DHT22;27639;48.674;9.242;2023-10-09T07:50:52;17.60;58.60
21502;DHT22;27639;48.674;9.242;2023-10-09T07:53:23;17.70;58.70
21502;DHT22;27639;48.674;9.242;2023-10-09T07:55:55;17.70;58.70
21502;DHT22;27639;48.674;9.242;2023-10-09T07:58:26;17.80;58.70
21502;DHT22;27639;48.674;9.242;2023-10-09T08:00:56;17.90;58.70
21502;DHT22;27639;48.674;9.242;2023-10-09T08:03:48;18.00;58.60
21502;DHT22;27639;48.674;9.242;2023-10-09T08:06:26;18.10;58.60
21502;DHT22;27639;48.674;9.242;2023-10-09T08:09:04;18.20;58.50
21502;DHT22;27639;48.674;9.242;2023-10-09T08:11:50;18.30;58.40
21502;DHT22;27639;48.674;9.242;2023-10-09T08:14:34;18.30;58.20
21502;DHT22;27639;48.674;9.242;2023-10-09T08:16:59;18.30;58.20
21502;DHT22;27639;48.674;9.242;2023-10-09T08:19:49;18.30;58.20
21502;DHT22;27639;48.674;9.242;2023-10-09T08:22:36;18.40;58.20
21502;DHT22;27639;48.674;9.242;2023-10-09T08:25:12;18.40;58.50
21502;DHT22;27639;48.674;9.242;2023-10-09T08:27:52;18.50;58.60
21502;DHT22;27639;48.674;9.242;2023-10-09T08:30:21;18.50;58.50
21502;DHT22;27639;48.674;9.242;2023-10-09T08:32:48;18.60;58.70
21502;DHT22;27639;48.674;9.242;2023-10-09T08:35:49;18.60;58.60
21502;DHT22;27639;48.674;9.242;2023-10-09T08:38:16;18.70;58.70
21502;DHT22;27639;48.674;9.242;2023-10-09T08:40:49;18.70;58.90
21502;DHT22;27639;48.674;9.242;2023-10-09T08:43:18;18.80;59.00
21502;DHT22;27639;48.674;9.242;2023-10-09T08:45:48;18.90;59.00
21502;DHT22;27639;48.674;9.242;2023-10-09T08:48:17;19.00;59.00
21502;DHT22;27639;48.674;9.242;2023-10-09T08:50:49;19.10;58.90
21502;DHT22;27639;48.674;9.242;2023-10-09T08:53:16;19.20;58.70
21502;DHT22;27639;48.674;9.242;2023-10-09T08:55:43;19.30;58.70
21502;DHT22;27639;48.674;9.242;2023-10-09T08:58:09;19.50;58.60
21502;DHT22;27639;48.674;9.242;2023-10-09T09:00:58;19.50;58.40
21502;DHT22;27639;48.674;9.242;2023-10-09T09:03:29;19.60;58.30
21502;DHT22;27639;48.674;9.242;2023-10-09T09:06:02;19.70;58.10
21502;DHT22;27639;48.674;9.242;2023-10-09T09:08:30;19.70;58.20
21502;DHT22;27639;48.674;9.242;2023-10-09T09:11:09;19.80;58.30
21502;DHT22;27639;48.674;9.242;2023-10-09T09:13:42;20.00;58.40
21502;DHT22;27639;48.674;9.242;2023-10-09T09:16:24;20.10;58.10
21502;DHT22;27639;48.674;9.242;2023-10-09T09:21:48;20.30;57.70
21502;DHT22;27639;48.674;9.242;2023-10-09T09:24:17;20.50;57.40
21502;DHT22;27639;48.674;9.242;2023-10-09T09:26:50;20.60;57.10
21502;DHT22;27639;48.674;9.242;2023-10-09T09:32:11;20.90;56.40
21502;DHT22;27639;48.674;9.242;2023-10-09T09:34:53;21.00;55.60
21502;DHT22;27639;48.674;9.242;2023-10-09T09:37:31;21.10;55.00
21502;DHT22;27639;48.674;9.242;2023-10-09T09:40:16;21.20;54.40
21502;DHT22;27639;48.674;9.242;2023-10-09T09:42:57;21.40;54.20
21502;DHT22;27639;48.674;9.242;2023-10-09T09:45:31;21.50;53.80
21502;DHT22;27639;48.674;9.242;2023-10-09T09:48:01;21.70;53.40
21502;DHT22;27639;48.674;9.242;2023-10-09T09:50:32;21.70;52.30
21502;DHT22;27639;48.674;9.242;2023-10-09T09:52:59;21.80;52.20
21502;DHT22;27639;48.674;9.242;2023-10-09T09:55:33;22.00;51.80
21502;DHT22;27639;48.674;9.242;2023-10-09T09:58:02;22.10;51.30
21502;DHT22;27639;48.674;9.242;2023-10-09T10:00:33;22.20;51.20
21502;DHT22;27639;48.674;9.242;2023-10-09T10:03:51;22.30;50.90
21502;DHT22;27639;48.674;9.242;2023-10-09T10:06:00;22.50;51.00
21502;DHT22;27639;48.674;9.242;2023-10-09T10:08:31;22.60;50.20
21502;DHT22;27639;48.674;9.242;2023-10-09T10:10:58;22.70;49.70
21502;DHT22;27639;48.674;9.242;2023-10-09T10:16:14;23.00;49.60
21502;DHT22;27639;48.674;9.242;2023-10-09T10:18:59;23.10;49.30
21502;DHT22;27639;48.674;9.242;2023-10-09T10:21:43;23.30;49.40
21502;DHT22;27639;48.674;9.242;2023-10-09T10:29:35;23.60;48.90
21502;DHT22;27639;48.674;9.242;2023-10-09T10:32:04;23.70;48.60
21502;DHT22;27639;48.674;9.242;2023-10-09T10:34:52;23.80;48.30
21502;DHT22;27639;48.674;9.242;2023-10-09T10:40:25;24.00;48.20
21502;DHT22;27639;48.674;9.242;2023-10-09T10:43:06;24.10;48.00
21502;DHT22;27639;48.674;9.242;2023-10-09T10:46:04;24.20;47.30
21502;DHT22;27639;48.674;9.242;2023-10-09T10:48:34;24.20;46.90
21502;DHT22;27639;48.674;9.242;2023-10-09T10:51:06;24.40;46.90
21502;DHT22;27639;48.674;9.242;2023-10-09T10:53:37;24.40;46.70
21502;DHT22;27639;48.674;9.242;2023-10-09T10:56:14;24.50;46.60
21502;DHT22;27639;48.674;9.242;2023-10-09T10:58:40;24.60;46.50
21502;DHT22;27639;48.674;9.242;2023-10-09T11:01:19;24.60;45.80
21502;DHT22;27639;48.674;9.242;2023-10-09T11:03:44;24.60;45.50
21502;DHT22;27639;48.674;9.242;2023-10-09T11:06:30;24.70;45.40
21502;DHT22;27639;48.674;9.242;2023-10-09T11:09:07;24.70;45.20
21502;DHT22;27639;48.674;9.242;2023-10-09T11:11:48;24.70;45.20
21502;DHT22;27639;48.674;9.242;2023-10-09T11:14:14;24.70;45.20
21502;DHT22;27639;48.674;9.242;2023-10-09T11:16:41;24.80;45.00
21502;DHT22;27639;48.674;9.242;2023-10-09T11:19:22;24.80;44.90
21502;DHT22;27639;48.674;9.242;2023-10-09T11:21:55;24.80;44.80
21502;DHT22;27639;48.674;9.242;2023-10-09T11:24:39;24.80;44.60
21502;DHT22;27639;48.674;9.242;2023-10-09T11:27:08;24.80;44.90
21502;DHT22;27639;48.674;9.242;2023-10-09T11:29:48;24.90;44.90
21502;DHT22;27639;48.674;9.242;2023-10-09T11:32:18;24.90;45.00
21502;DHT22;27639;48.674;9.242;2023-10-09T11:34:45;24.80;45.40
21502;DHT22;27639;48.674;9.242;2023-10-09T11:37:22;24.90;45.20
21502;DHT22;27639;48.674;9.242;2023-10-09T11:40:31;25.00;45.60
21502;DHT22;27639;48.674;9.242;2023-10-09T11:43:28;25.10;44.90
21502;DHT22;27639;48.674;9.242;2023-10-09T11:46:13;25.10;45.00
21502;DHT22;27639;48.674;9.242;2023-10-09T11:49:05;25.20;44.90
21502;DHT22;27639;48.674;9.242;2023-10-09T11:51:46;25.20;44.90
21502;DHT22;27639;48.674;9.242;2023-10-09T11:54:34;25.20;44.60
21502;DHT22;27639;48.674;9.242;2023-10-09T11:57:04;25.20;44.40
21502;DHT22;27639;48.674;9.242;2023-10-09T11:59:35;25.20;44.20
21502;DHT22;27639;48.674;9.242;2023-10-09T12:02:07;25.20;44.30
21502;DHT22;27639;48.674;9.242;2023-10-09T12:04:42;25.20;44.20
21502;DHT22;27639;48.674;9.242;2023-10-09T12:07:08;25.20;44.20
21502;DHT22;27639;48.674;9.242;2023-10-09T12:09:38;25.20;44.00
21502;DHT22;27639;48.674;9.242;2023-10-09T12:12:06;25.20;43.90
21502;DHT22;27639;48.674;9.242;2023-10-09T12:14:33;25.30;44.20
21502;DHT22;27639;48.674;9.242;2023-10-09T12:17:07;25.20;44.10
21502;DHT22;27639;48.674;9.242;2023-10-09T12:19:38;25.30;44.10
21502;DHT22;27639;48.674;9.242;2023-10-09T12:22:05;25.30;44.00
21502;DHT22;27639;48.674;9.242;2023-10-09T12:24:32;25.30;43.90
21502;DHT22;27639;48.674;9.242;2023-10-09T12:26:59;25.30;43.90
21502;DHT22;27639;48.674;9.242;2023-10-09T12:29:25;25.30;43.80
21502;DHT22;27639;48.674;9.242;2023-10-09T12:31:55;25.40;43.90
21502;DHT22;27639;48.674;9.242;2023-10-09T12:34:27;25.40;43.70
21502;DHT22;27639;48.674;9.242;2023-10-09T12:36:56;25.50;43.90
21502;DHT22;27639;48.674;9.242;2023-10-09T12:39:26;25.50;43.80
21502;DHT22;27639;48.674;9.242;2023-10-09T12:41:58;25.60;43.90
21502;DHT22;27639;48.674;9.242;2023-10-09T12:44:35;25.60;43.70
21502;DHT22;27639;48.674;9.242;2023-10-09T12:47:05;25.80;44.00
21502;DHT22;27639;48.674;9.242;2023-10-09T12:49:31;25.90;43.90
21502;DHT22;27639;48.674;9.242;2023-10-09T12:51:57;26.00;43.80
21502;DHT22;27639;48.674;9.242;2023-10-09T12:54:25;26.20;43.60
21502;DHT22;27639;48.674;9.242;2023-10-09T12:56:56;26.30;43.20
21502;DHT22;27639;48.674;9.242;2023-10-09T12:59:23;26.40;43.10
21502;DHT22;27639;48.674;9.242;2023-10-09T13:01:49;26.40;43.00
21502;DHT22;27639;48.674;9.242;2023-10-09T13:04:19;26.60;43.00
21502;DHT22;27639;48.674;9.242;2023-10-09T13:06:48;26.60;42.80
21502;DHT22;27639;48.674;9.242;2023-10-09T13:09:17;26.70;42.50
21502;DHT22;27639;48.674;9.242;2023-10-09T13:11:50;26.80;42.10
21502;DHT22;27639;48.674;9.242;2023-10-09T13:14:16;26.80;42.10
21502;DHT22;27639;48.674;9.242;2023-10-09T13:16:50;26.80;42.30
21502;DHT22;27639;48.674;9.242;2023-10-09T13:19:17;26.90;42.00
21502;DHT22;27639;48.674;9.242;2023-10-09T13:21:43;26.90;42.10
21502;DHT22;27639;48.674;9.242;2023-10-09T13:24:09;26.90;41.90
21502;DHT22;27639;48.674;9.242;2023-10-09T13:26:42;27.00;42.10
21502;DHT22;27639;48.674;9.242;2023-10-09T13:29:10;27.10;41.70
21502;DHT22;27639;48.674;9.242;2023-10-09T13:31:37;27.20;41.50
21502;DHT22;27639;48.674;9.242;2023-10-09T13:34:06;27.20;41.40
21502;DHT22;27639;48.674;9.242;2023-10-09T13:36:35;27.30;40.70
21502;DHT22;27639;48.674;9.242;2023-10-09T13:39:06;27.40;40.40
21502;DHT22;27639;48.674;9.242;2023-10-09T13:41:57;27.50;40.60
21502;DHT22;27639;48.674;9.242;2023-10-09T13:44:30;27.60;40.30
21502;DHT22;27639;48.674;9.242;2023-10-09T13:46:57;27.70;39.90
21502;DHT22;27639;48.674;9.242;2023-10-09T13:49:22;27.80;39.50
21502;DHT22;27639;48.674;9.242;2023-10-09T13:51:49;28.00;40.10
21502;DHT22;27639;48.674;9.242;2023-10-09T13:54:16;28.10;39.30
21502;DHT22;27639;48.674;9.242;2023-10-09T13:56:57;28.20;39.30
21502;DHT22;27639;48.674;9.242;2023-10-09T13:59:23;28.20;39.40
21502;DHT22;27639;48.674;9.242;2023-10-09T14:01:54;28.30;38.70
21502;DHT22;27639;48.674;9.242;2023-10-09T14:04:23;28.20;37.40
21502;DHT22;27639;48.674;9.242;2023-10-09T14:06:49;28.10;36.00
21502;DHT22;27639;48.674;9.242;2023-10-09T14:09:23;28.10;36.40
21502;DHT22;27639;48.674;9.242;2023-10-09T14:12:03;28.20;35.50
21502;DHT22;27639;48.674;9.242;2023-10-09T14:14:41;28.20;35.10
21502;DHT22;27639;48.674;9.242;2023-10-09T14:17:13;28.20;34.80
21502;DHT22;27639;48.674;9.242;2023-10-09T14:19:40;28.20;34.70
21502;DHT22;27639;48.674;9.242;2023-10-09T14:22:16;28.30;34.60
21502;DHT22;27639;48.674;9.242;2023-10-09T14:24:42;28.20;34.20
21502;DHT22;27639;48.674;9.242;2023-10-09T14:27:11;28.20;33.90
21502;DHT22;27639;48.674;9.242;2023-10-09T14:29:46;28.20;33.70
21502;DHT22;27639;48.674;9.242;2023-10-09T14:32:12;28.10;33.70
21502;DHT22;27639;48.674;9.242;2023-10-09T14:34:41;28.00;33.00
21502;DHT22;27639;48.674;9.242;2023-10-09T14:37:20;27.90;32.70
21502;DHT22;27639;48.674;9.242;2023-10-09T14:39:46;27.90;33.00
21502;DHT22;27639;48.674;9.242;2023-10-09T14:42:17;27.90;32.90
21502;DHT22;27639;48.674;9.242;2023-10-09T14:44:43;27.90;32.70
21502;DHT22;27639;48.674;9.242;2023-10-09T14:47:10;27.90;32.70
21502;DHT22;27639;48.674;9.242;2023-10-09T14:49:36;27.90;32.40
21502;DHT22;27639;48.674;9.242;2023-10-09T14:52:25;27.90;32.20
21502;DHT22;27639;48.674;9.242;2023-10-09T14:54:53;27.90;32.30
21502;DHT22;27639;48.674;9.242;2023-10-09T14:57:18;27.90;32.30
21502;DHT22;27639;48.674;9.242;2023-10-09T14:59:44;27.80;32.10
21502;DHT22;27639;48.674;9.242;2023-10-09T15:02:10;27.70;32.20
21502;DHT22;27639;48.674;9.242;2023-10-09T15:04:37;27.70;32.20
21502;DHT22;27639;48.674;9.242;2023-10-09T15:07:03;27.80;32.20
21502;DHT22;27639;48.674;9.242;2023-10-09T15:09:33;27.70;32.00
21502;DHT22;27639;48.674;9.242;2023-10-09T15:12:00;27.70;32.10
21502;DHT22;27639;48.674;9.242;2023-10-09T15:14:26;27.70;32.30
21502;DHT22;27639;48.674;9.242;2023-10-09T15:16:51;27.70;32.40
21502;DHT22;27639;48.674;9.242;2023-10-09T15:19:17;27.70;32.70
21502;DHT22;27639;48.674;9.242;2023-10-09T15:21:43;27.70;33.00
21502;DHT22;27639;48.674;9.242;2023-10-09T15:24:13;27.60;33.10
21502;DHT22;27639;48.674;9.242;2023-10-09T15:26:47;27.60;33.10
21502;DHT22;27639;48.674;9.242;2023-10-09T15:29:20;27.60;33.40
21502;DHT22;27639;48.674;9.242;2023-10-09T15:31:54;27.50;33.30
21502;DHT22;27639;48.674;9.242;2023-10-09T15:34:20;27.40;33.00
21502;DHT22;27639;48.674;9.242;2023-10-09T15:36:47;27.40;33.30
21502;DHT22;27639;48.674;9.242;2023-10-09T15:39:16;27.40;33.30
21502;DHT22;27639;48.674;9.242;2023-10-09T15:41:47;27.40;33.00
21502;DHT22;27639;48.674;9.242;2023-10-09T15:44:14;27.30;33.00
21502;DHT22;27639;48.674;9.242;2023-10-09T15:46:40;27.30;33.40
21502;DHT22;27639;48.674;9.242;2023-10-09T15:49:05;27.30;33.00
21502;DHT22;27639;48.674;9.242;2023-10-09T15:51:37;27.20;32.80
21502;DHT22;27639;48.674;9.242;2023-10-09T15:54:02;27.10;32.80
21502;DHT22;27639;48.674;9.242;2023-10-09T15:56:28;27.10;33.10
21502;DHT22;27639;48.674;9.242;2023-10-09T15:58:53;27.10;33.10
21502;DHT22;27639;48.674;9.242;2023-10-09T16:01:20;27.00;32.90
21502;DHT22;27639;48.674;9.242;2023-10-09T16:03:46;27.00;32.90
21502;DHT22;27639;48.674;9.242;2023-10-09T16:06:17;27.00;33.30
21502;DHT22;27639;48.674;9.242;2023-10-09T16:08:44;26.90;33.50
21502;DHT22;27639;48.674;9.242;2023-10-09T16:11:22;26.90;33.60
21502;DHT22;27639;48.674;9.242;2023-10-09T16:13:53;26.80;33.70
21502;DHT22;27639;48.674;9.242;2023-10-09T16:16:26;26.80;34.10
21502;DHT22;27639;48.674;9.242;2023-10-09T16:18:52;26.80;34.30
21502;DHT22;27639;48.674;9.242;2023-10-09T16:21:17;26.70;34.60
21502;DHT22;27639;48.674;9.242;2023-10-09T16:23:43;26.70;34.80
21502;DHT22;27639;48.674;9.242;2023-10-09T16:26:09;26.70;35.00
21502;DHT22;27639;48.674;9.242;2023-10-09T16:28:35;26.60;35.20
21502;DHT22;27639;48.674;9.242;2023-10-09T16:31:01;26.60;35.40
21502;DHT22;27639;48.674;9.242;2023-10-09T16:33:27;26.50;35.50
21502;DHT22;27639;48.674;9.242;2023-10-09T16:35:54;26.50;36.20
21502;DHT22;27639;48.674;9.242;2023-10-09T16:38:21;26.40;35.60